Time;durP1;ratioP1;P1;durP2;ratioP2;P2;SDS_P1;SDS_P2;PMS_P1;PMS_P2;Temp;Humidity;BMP_temperature;BMP_pressure;BME280_temperature;BME280_humidity;BME280_pressure;Samples;Min_cycle;Max_cycle;Signal;HPM_P1;HPM_P2
2021/03/07 00:00:28;;;;;;;12.75;7.93;;;0.80;92.10;;;;;;5030087;28;20032;-47
2021/03/07 00:02:54;;;;;;;11.60;7.95;;;0.70;92.20;;;;;;5032658;28;20029;-46
2021/03/07 00:05:20;;;;;;;17.60;7.82;;;0.70;92.10;;;;;;5043301;28;20029;-47
2021/03/07 00:07:47;;;;;;;11.02;7.40;;;0.80;92.10;;;;;;5051210;28;20071;-48
2021/03/07 00:10:15;;;;;;;11.43;8.85;;;0.80;92.10;;;;;;5040026;28;20057;-48
2021/03/07 00:12:42;;;;;;;14.80;8.73;;;0.80;92.30;;;;;;5031070;28;20025;-50
2021/03/07 00:15:10;;;;;;;14.07;7.90;;;0.80;92.40;;;;;;5040356;28;20033;-46
2021/03/07 00:17:37;;;;;;;11.40;8.07;;;0.70;92.30;;;;;;5050575;28;20037;-49
2021/03/07 00:20:05;;;;;;;13.45;8.05;;;0.70;92.30;;;;;;5050635;28;20079;-46
2021/03/07 00:22:31;;;;;;;13.07;9.13;;;0.70;92.10;;;;;;5050927;28;20112;-51
2021/03/07 00:24:56;;;;;;;14.85;9.82;;;0.70;92.30;;;;;;5044860;28;20092;-47
2021/03/07 00:27:22;;;;;;;16.70;9.13;;;0.60;91.90;;;;;;5031341;28;20025;-44
2021/03/07 00:29:47;;;;;;;13.32;8.27;;;0.60;92.10;;;;;;5035132;28;20044;-46
2021/03/07 00:32:13;;;;;;;12.93;8.93;;;0.60;92.10;;;;;;5052389;28;20082;-50
2021/03/07 00:34:38;;;;;;;13.52;9.13;;;0.50;92.10;;;;;;5049333;28;20107;-47
2021/03/07 00:37:04;;;;;;;13.50;8.07;;;0.50;92.10;;;;;;5051025;28;20379;-49
2021/03/07 00:39:30;;;;;;;12.73;7.80;;;0.50;92.00;;;;;;5048983;28;20029;-50
2021/03/07 00:41:57;;;;;;;11.77;7.35;;;0.50;91.90;;;;;;5032286;28;20029;-53
2021/03/07 00:44:22;;;;;;;14.95;7.72;;;0.50;91.60;;;;;;5030634;28;20022;-45
2021/03/07 00:46:48;;;;;;;17.60;8.63;;;0.50;91.50;;;;;;5050405;28;20028;-47
2021/03/07 00:49:19;;;;;;;15.32;9.05;;;0.60;91.30;;;;;;5051081;28;20465;-49
2021/03/07 00:51:45;;;;;;;14.50;8.63;;;0.60;91.40;;;;;;5048700;28;20174;-49
2021/03/07 00:54:11;;;;;;;11.80;8.25;;;0.60;91.30;;;;;;5050481;28;20112;-50
2021/03/07 00:56:36;;;;;;;14.88;8.77;;;0.60;91.30;;;;;;5048637;28;20061;-46
2021/03/07 00:59:02;;;;;;;10.98;7.88;;;0.70;91.30;;;;;;5049481;28;20394;-47
2021/03/07 01:01:27;;;;;;;13.40;7.18;;;0.50;91.40;;;;;;5034830;28;20421;-47
2021/03/07 01:03:53;;;;;;;12.52;8.10;;;0.50;91.70;;;;;;5031283;28;20029;-47
2021/03/07 01:06:19;;;;;;;15.30;9.00;;;0.50;92.10;;;;;;5030827;28;20446;-45
2021/03/07 01:08:44;;;;;;;11.48;8.10;;;0.50;92.40;;;;;;5043042;28;20110;-46
2021/03/07 01:11:10;;;;;;;21.92;10.10;;;0.60;92.60;;;;;;5050539;28;20478;-45
2021/03/07 01:13:35;;;;;;;11.07;8.15;;;0.60;92.80;;;;;;5038075;28;20030;-48
2021/03/07 01:16:01;;;;;;;15.98;8.73;;;0.60;92.70;;;;;;5031069;28;20060;-47
2021/03/07 01:18:26;;;;;;;16.38;9.13;;;0.60;92.90;;;;;;5038563;28;20068;-46
2021/03/07 01:20:52;;;;;;;13.23;8.77;;;0.60;93.00;;;;;;5050533;28;20048;-46
2021/03/07 01:23:19;;;;;;;16.42;8.98;;;0.60;93.20;;;;;;5042746;28;20033;-50
2021/03/07 01:25:45;;;;;;;12.25;8.80;;;0.60;93.40;;;;;;5030513;28;20051;-45
2021/03/07 01:28:10;;;;;;;19.13;9.50;;;0.60;93.40;;;;;;5036276;28;20565;-46
2021/03/07 01:30:38;;;;;;;13.05;8.88;;;0.60;93.40;;;;;;5054200;28;20031;-48
2021/03/07 01:33:05;;;;;;;12.15;8.25;;;0.60;93.70;;;;;;5049240;28;20514;-45
2021/03/07 01:35:31;;;;;;;15.02;9.13;;;0.50;93.60;;;;;;5034027;28;20116;-46
2021/03/07 01:37:57;;;;;;;13.02;8.73;;;0.70;93.60;;;;;;5014517;28;20101;-46
2021/03/07 01:40:26;;;;;;;13.38;9.20;;;0.60;93.90;;;;;;5014116;28;20460;-46
2021/03/07 01:42:54;;;;;;;13.20;8.82;;;0.60;94.10;;;;;;5033340;28;20554;-49
2021/03/07 01:45:21;;;;;;;14.38;9.10;;;0.50;94.70;;;;;;5033890;28;20048;-47
2021/03/07 01:47:52;;;;;;;12.52;8.82;;;0.50;94.70;;;;;;5051404;28;20045;-45
2021/03/07 01:50:20;;;;;;;12.88;8.88;;;0.40;95.20;;;;;;5053795;28;20021;-44
2021/03/07 01:52:47;;;;;;;13.70;8.93;;;0.40;95.10;;;;;;5036145;28;20141;-43
2021/03/07 01:55:15;;;;;;;14.25;8.25;;;0.40;95.40;;;;;;5033889;28;20029;-45
2021/03/07 01:57:42;;;;;;;16.80;10.43;;;0.40;95.60;;;;;;5047150;28;20457;-46
2021/03/07 02:00:09;;;;;;;11.93;8.73;;;0.40;95.30;;;;;;5053861;28;20445;-46
2021/03/07 02:02:35;;;;;;;11.18;8.82;;;0.40;95.10;;;;;;5050980;28;20079;-45
2021/03/07 02:05:09;;;;;;;17.45;9.43;;;0.40;95.10;;;;;;5051874;28;20080;-46
2021/03/07 02:07:35;;;;;;;13.38;8.80;;;0.30;94.80;;;;;;5053380;28;20104;-46
2021/03/07 02:10:01;;;;;;;13.23;8.85;;;0.10;95.00;;;;;;5046018;28;20488;-48
2021/03/07 02:12:28;;;;;;;14.32;9.35;;;-0.10;97.60;;;;;;5033596;28;20041;-44
2021/03/07 02:14:55;;;;;;;14.65;9.45;;;0.00;95.00;;;;;;5040891;28;20128;-47
2021/03/07 02:17:22;;;;;;;12.90;8.57;;;-0.10;95.30;;;;;;5053259;28;20017;-46
2021/03/07 02:19:49;;;;;;;16.25;9.73;;;-0.10;95.30;;;;;;5051761;28;20025;-46
2021/03/07 02:22:24;;;;;;;13.80;9.05;;;-0.20;95.20;;;;;;5053317;28;20029;-47
2021/03/07 02:24:50;;;;;;;17.02;9.48;;;;;;;;;;5046656;28;20474;-45
2021/03/07 02:27:16;;;;;;;14.68;9.57;;;-0.40;95.50;;;;;;5033038;28;20487;-45
2021/03/07 02:29:44;;;;;;;13.65;8.70;;;-0.40;95.90;;;;;;5013347;28;20068;-45
2021/03/07 02:32:17;;;;;;;14.07;9.77;;;-0.50;96.00;;;;;;5013863;28;20109;-44
2021/03/07 02:34:53;;;;;;;11.55;8.68;;;-0.50;96.10;;;;;;5031719;28;20538;-46
2021/03/07 02:37:21;;;;;;;16.98;10.50;;;;;;;;;;5033715;28;20045;-44
2021/03/07 02:39:49;;;;;;;15.48;9.07;;;-0.30;99.90;;;;;;5052860;28;20056;-45
2021/03/07 02:42:23;;;;;;;14.50;9.02;;;;;;;;;;5052249;28;20509;-43
2021/03/07 02:45:00;;;;;;;15.85;9.30;;;;;;;;;;5013079;28;20034;-46
2021/03/07 02:47:27;;;;;;;14.80;9.23;;;;;;;;;;5014612;28;20128;-44
2021/03/07 02:49:54;;;;;;;15.75;8.07;;;;;;;;;;5052934;28;20037;-44
2021/03/07 02:52:21;;;;;;;15.95;8.77;;;;;;;;;;5053157;28;20033;-44
2021/03/07 02:54:49;;;;;;;14.13;8.93;;;;;;;;;;5032875;28;20030;-45
2021/03/07 02:57:16;;;;;;;13.52;9.32;;;;;;;;;;5034073;28;20026;-43
2021/03/07 02:59:43;;;;;;;14.07;8.55;;;;;;;;;;5032676;28;20386;-44
2021/03/07 03:02:09;;;;;;;14.80;8.57;;;;;;;;;;5047007;28;20112;-44
2021/03/07 03:04:35;;;;;;;12.98;9.02;;;;;;;;;;5052431;28;20083;-45
2021/03/07 03:07:03;;;;;;;13.02;8.13;;;;;;;;;;5039864;28;20509;-45
2021/03/07 03:09:30;;;;;;;14.68;8.23;;;;;;;;;;5032535;28;20495;-44
2021/03/07 03:11:57;;;;;;;10.73;7.72;;;;;;;;;;5043498;28;20025;-45
2021/03/07 03:14:24;;;;;;;18.63;9.23;;;-0.50;99.90;;;;;;5052200;28;20112;-47
2021/03/07 03:16:54;;;;;;;12.68;8.32;;;;;;;;;;5042227;28;20061;-46
2021/03/07 03:19:21;;;;;;;12.95;7.75;;;0.10;97.40;;;;;;5032610;28;20504;-48
2021/03/07 03:21:47;;;;;;;15.13;9.32;;;-0.40;99.90;;;;;;5041060;28;20040;-48
2021/03/07 03:24:13;;;;;;;10.77;7.43;;;-0.50;95.10;;;;;;5051768;28;20029;-44
2021/03/07 03:26:39;;;;;;;12.75;7.45;;;-0.50;95.00;;;;;;5044436;28;20152;-48
2021/03/07 03:29:07;;;;;;;13.45;7.93;;;-0.50;95.90;;;;;;5034734;28;20048;-46
2021/03/07 03:31:34;;;;;;;15.13;7.90;;;-0.50;94.90;;;;;;5052186;28;20029;-44
2021/03/07 03:34:01;;;;;;;9.48;6.97;;;-0.60;95.30;;;;;;5050104;28;20110;-45
2021/03/07 03:36:28;;;;;;;13.13;8.43;;;-0.60;94.90;;;;;;5031991;28;20108;-45
2021/03/07 03:38:57;;;;;;;10.70;7.30;;;-0.50;94.80;;;;;;5031888;28;20026;-45
2021/03/07 03:41:24;;;;;;;9.55;7.25;;;-0.60;94.80;;;;;;5029892;28;20032;-45
2021/03/07 03:43:53;;;;;;;12.93;6.72;;;-0.60;94.70;;;;;;5031696;28;20079;-45
2021/03/07 03:46:21;;;;;;;12.70;7.22;;;-0.60;94.60;;;;;;5050763;28;20091;-45
2021/03/07 03:48:53;;;;;;;11.65;6.95;;;-0.50;94.50;;;;;;5051618;28;20032;-46
2021/03/07 03:51:20;;;;;;;9.80;7.35;;;-0.50;94.40;;;;;;5050336;28;20035;-44
2021/03/07 03:53:46;;;;;;;12.35;7.63;;;-0.50;94.40;;;;;;5050123;28;20025;-45
2021/03/07 03:56:15;;;;;;;12.55;7.20;;;-0.60;94.30;;;;;;5033666;28;20037;-44
2021/03/07 03:58:43;;;;;;;11.35;7.28;;;-0.50;94.40;;;;;;5044575;28;20029;-45
2021/03/07 04:01:10;;;;;;;11.10;7.47;;;-0.60;94.50;;;;;;5051398;28;20032;-45
2021/03/07 04:03:37;;;;;;;14.02;6.90;;;-0.60;94.50;;;;;;5038756;28;20498;-44
2021/03/07 04:06:03;;;;;;;15.32;7.97;;;-0.60;94.60;;;;;;5031379;28;20639;-45
2021/03/07 04:08:29;;;;;;;10.20;7.35;;;;;;;;;;5032148;28;20029;-45
2021/03/07 04:10:57;;;;;;;12.98;7.45;;;-0.70;94.50;;;;;;5031346;28;20032;-45
2021/03/07 04:13:32;;;;;;;8.75;6.38;;;-0.60;94.70;;;;;;5032099;28;20022;-44
2021/03/07 04:15:58;;;;;;;8.93;6.93;;;-0.60;94.60;;;;;;5031050;28;20557;-46
2021/03/07 04:18:26;;;;;;;10.02;6.97;;;-0.60;94.90;;;;;;5039549;28;20075;-45
2021/03/07 04:20:52;;;;;;;11.60;6.68;;;-0.60;94.60;;;;;;5050924;28;20050;-47
2021/03/07 04:23:18;;;;;;;11.48;7.43;;;-0.70;94.70;;;;;;5042826;28;20118;-44
2021/03/07 04:25:44;;;;;;;11.88;7.60;;;-0.60;94.60;;;;;;5033535;28;20224;-45
2021/03/07 04:28:10;;;;;;;10.93;7.32;;;-0.50;94.60;;;;;;5050731;28;20437;-45
2021/03/07 04:30:37;;;;;;;12.93;7.90;;;;;;;;;;5049490;28;20032;-49
2021/03/07 04:33:04;;;;;;;11.73;7.82;;;-0.40;94.20;;;;;;5029565;28;20064;-45
2021/03/07 04:35:31;;;;;;;12.90;7.38;;;-0.40;94.40;;;;;;5030834;28;20030;-45
2021/03/07 04:37:58;;;;;;;12.27;7.20;;;-0.40;94.40;;;;;;5050683;28;20446;-45
2021/03/07 04:40:24;;;;;;;11.82;7.72;;;-0.40;94.60;;;;;;5050581;28;20035;-44
2021/03/07 04:42:51;;;;;;;8.57;7.10;;;-0.50;94.70;;;;;;5031418;28;20037;-46
2021/03/07 04:45:17;;;;;;;14.45;8.60;;;-0.50;94.90;;;;;;5030573;28;20078;-46
2021/03/07 04:47:43;;;;;;;12.68;7.80;;;-0.50;95.00;;;;;;5047021;28;20406;-44
2021/03/07 04:50:10;;;;;;;13.63;7.72;;;-0.60;95.20;;;;;;5050517;28;20100;-44
2021/03/07 04:52:36;;;;;;;10.25;7.32;;;-0.60;95.30;;;;;;5035419;28;20087;-44
2021/03/07 04:55:02;;;;;;;13.18;8.23;;;-0.60;95.30;;;;;;5041753;28;20037;-45
2021/03/07 04:57:28;;;;;;;12.88;8.25;;;-0.70;95.50;;;;;;5049264;28;20031;-44
2021/03/07 04:59:53;;;;;;;9.95;7.78;;;-0.60;95.50;;;;;;5031565;28;20108;-45
2021/03/07 05:02:19;;;;;;;13.48;8.57;;;-0.60;95.40;;;;;;5030611;28;20395;-44
2021/03/07 05:04:44;;;;;;;11.80;7.75;;;-0.50;95.50;;;;;;5047931;28;20037;-45
2021/03/07 05:07:10;;;;;;;12.25;8.18;;;-0.60;95.60;;;;;;5050299;28;20033;-45
2021/03/07 05:09:35;;;;;;;13.52;8.43;;;-0.60;95.70;;;;;;5033223;28;20048;-45
2021/03/07 05:12:01;;;;;;;14.88;9.02;;;-0.70;95.80;;;;;;5030525;28;20022;-44
2021/03/07 05:14:26;;;;;;;15.88;8.25;;;-0.70;95.90;;;;;;5031296;28;20037;-47
2021/03/07 05:16:53;;;;;;;12.77;7.80;;;-0.80;96.10;;;;;;5030300;28;20097;-44
2021/03/07 05:19:19;;;;;;;10.90;7.88;;;-0.80;96.30;;;;;;5042245;28;20025;-45
2021/03/07 05:21:44;;;;;;;18.40;9.25;;;-0.80;96.40;;;;;;5050257;28;20029;-46
2021/03/07 05:24:10;;;;;;;15.43;9.55;;;-0.90;96.60;;;;;;5032022;28;20042;-47
2021/03/07 05:26:35;;;;;;;15.05;8.57;;;-1.00;96.70;;;;;;5030202;28;20399;-45
2021/03/07 05:29:01;;;;;;;12.05;8.40;;;-0.90;96.80;;;;;;5031230;28;20531;-45
2021/03/07 05:31:26;;;;;;;14.45;9.07;;;-0.90;96.70;;;;;;5028981;28;20026;-44
2021/03/07 05:33:52;;;;;;;14.15;8.27;;;-0.90;96.60;;;;;;5043850;28;20029;-46
2021/03/07 05:36:17;;;;;;;14.50;8.48;;;-0.90;96.70;;;;;;5050043;28;20103;-44
2021/03/07 05:38:43;;;;;;;13.55;7.93;;;-0.90;96.80;;;;;;5048375;28;20033;-45
2021/03/07 05:41:12;;;;;;;12.18;8.00;;;-0.90;96.80;;;;;;5050091;28;20032;-46
2021/03/07 05:43:39;;;;;;;10.82;8.40;;;-1.10;97.10;;;;;;5038517;28;20064;-45
2021/03/07 05:46:04;;;;;;;13.52;8.43;;;-1.10;97.10;;;;;;5029936;28;20116;-44
2021/03/07 05:48:30;;;;;;;12.25;8.20;;;-1.00;97.10;;;;;;5039122;28;20112;-45
2021/03/07 05:50:56;;;;;;;14.13;8.23;;;-1.00;97.00;;;;;;5044425;28;20026;-44
2021/03/07 05:53:23;;;;;;;12.70;8.40;;;-1.00;97.00;;;;;;5029617;28;20533;-45
2021/03/07 05:55:49;;;;;;;12.13;8.85;;;-1.00;97.00;;;;;;5033135;28;20029;-48
2021/03/07 05:58:16;;;;;;;14.55;8.88;;;-0.90;96.90;;;;;;5049780;28;20648;-44
2021/03/07 06:00:42;;;;;;;13.60;9.57;;;-1.00;97.00;;;;;;5048123;28;20025;-45
2021/03/07 06:03:08;;;;;;;12.93;9.27;;;-1.10;97.10;;;;;;5049299;28;20495;-44
2021/03/07 06:05:34;;;;;;;15.10;8.90;;;-1.20;97.30;;;;;;5049100;28;20112;-44
2021/03/07 06:08:00;;;;;;;13.88;8.75;;;-1.20;97.50;;;;;;5029804;28;20391;-46
2021/03/07 06:10:28;;;;;;;16.75;9.55;;;-1.30;97.60;;;;;;5030518;28;20041;-49
2021/03/07 06:13:02;;;;;;;15.98;10.00;;;-1.30;97.80;;;;;;5046832;28;20490;-45
2021/03/07 06:15:29;;;;;;;16.98;8.65;;;-1.30;97.90;;;;;;5052306;28;20080;-46
2021/03/07 06:17:55;;;;;;;14.07;8.75;;;-1.30;97.70;;;;;;5036685;28;20021;-46
2021/03/07 06:20:22;;;;;;;16.45;9.45;;;-1.20;97.70;;;;;;5047572;28;20033;-48
2021/03/07 06:22:59;;;;;;;16.65;9.90;;;-1.10;97.60;;;;;;5052910;28;20056;-44
2021/03/07 06:25:24;;;;;;;15.50;8.40;;;-1.10;97.40;;;;;;5051468;28;20025;-44
2021/03/07 06:27:51;;;;;;;12.70;8.52;;;-1.00;97.20;;;;;;5053038;28;20104;-45
2021/03/07 06:30:23;;;;;;;14.25;8.73;;;-0.90;97.00;;;;;;5040362;28;20026;-46
2021/03/07 06:32:58;;;;;;;11.90;8.60;;;-0.80;96.80;;;;;;5077413;22;20075;-47
2021/03/07 06:35:29;;;;;;;12.27;8.05;;;-0.60;96.50;;;;;;5093432;28;20616;-45
2021/03/07 06:37:59;;;;;;;11.40;7.60;;;-0.40;96.10;;;;;;5095788;28;20373;-44
2021/03/07 06:40:32;;;;;;;11.35;8.13;;;-0.30;95.70;;;;;;5101018;28;20049;-45
2021/03/07 06:42:59;;;;;;;14.13;8.02;;;-0.20;95.40;;;;;;5063952;28;20027;-48
2021/03/07 06:45:38;;;;;;;9.65;7.15;;;0.00;95.20;;;;;;5079219;28;20036;-43
2021/03/07 06:48:04;;;;;;;11.70;7.50;;;0.10;94.80;;;;;;5093375;28;20485;-50
2021/03/07 06:50:30;;;;;;;16.55;7.38;;;0.20;94.60;;;;;;5062563;28;20112;-46
2021/03/07 06:52:58;;;;;;;10.48;6.95;;;0.40;94.40;;;;;;5071794;28;20036;-46
2021/03/07 06:55:26;;;;;;;13.88;7.43;;;0.50;94.10;;;;;;5073351;28;20024;-51
2021/03/07 06:57:53;;;;;;;10.10;6.82;;;0.70;93.80;;;;;;5072219;28;20416;-47
2021/03/07 07:00:38;;;;;;;13.82;6.40;;;0.70;93.70;;;;;;5063394;28;20401;-47
2021/03/07 07:03:08;;;;;;;7.90;7.10;;;0.90;93.60;;;;;;5091823;28;20028;-48
2021/03/07 07:05:36;;;;;;;12.35;6.90;;;1.20;93.40;;;;;;5089889;28;20397;-48
2021/03/07 07:08:01;;;;;;;10.57;7.22;;;1.40;92.70;;;;;;5088348;28;20058;-46
2021/03/07 07:10:27;;;;;;;13.43;7.30;;;1.70;92.50;;;;;;5090633;28;20056;-45
2021/03/07 07:13:03;;;;;;;11.27;8.25;;;1.80;92.30;;;;;;5074890;28;20038;-46
2021/03/07 07:15:28;;;;;;;10.15;6.85;;;1.90;92.20;;;;;;5079428;28;20058;-46
2021/03/07 07:17:54;;;;;;;11.65;7.57;;;2.00;92.00;;;;;;5093150;28;20101;-46
2021/03/07 07:20:19;;;;;;;14.40;8.15;;;2.10;91.90;;;;;;5087604;28;20121;-44
2021/03/07 07:22:46;;;;;;;16.25;8.32;;;2.20;91.60;;;;;;5054687;28;20544;-45
2021/03/07 07:25:12;;;;;;;9.15;7.28;;;2.50;91.40;;;;;;5056373;28;20024;-45
2021/03/07 07:27:37;;;;;;;12.63;7.82;;;3.20;90.60;;;;;;5071756;28;20032;-44
2021/03/07 07:30:05;;;;;;;14.30;8.75;;;3.50;88.30;;;;;;5076941;28;20043;-47
2021/03/07 07:32:41;;;;;;;10.18;7.93;;;3.60;87.70;;;;;;5066383;28;20500;-49
2021/03/07 07:35:17;;;;;;;14.65;8.15;;;3.70;86.90;;;;;;5074929;28;20024;-43
2021/03/07 07:37:47;;;;;;;11.95;7.93;;;4.00;85.90;;;;;;5073217;28;20032;-50
2021/03/07 07:40:13;;;;;;;9.60;7.60;;;4.20;84.80;;;;;;5072551;28;20036;-45
2021/03/07 07:42:38;;;;;;;12.38;7.68;;;4.60;82.80;;;;;;5077250;28;20028;-44
2021/03/07 07:45:10;;;;;;;13.45;7.22;;;5.10;80.30;;;;;;5092055;28;20374;-46
2021/03/07 07:47:43;;;;;;;12.57;7.65;;;5.50;78.60;;;;;;5092039;28;20469;-47
2021/03/07 07:50:31;;;;;;;13.95;8.25;;;5.30;77.70;;;;;;5092272;28;20028;-46
2021/03/07 07:52:59;;;;;;;14.18;8.77;;;4.90;79.50;;;;;;5091319;28;20039;-49
2021/03/07 07:55:47;;;;;;;13.00;8.52;;;4.40;81.60;;;;;;5074417;28;20027;-45
2021/03/07 07:58:35;;;;;;;13.10;8.27;;;3.70;84.90;;;;;;5091997;28;20036;-49
2021/03/07 08:01:12;;;;;;;13.30;8.48;;;3.00;89.10;;;;;;5091992;28;20020;-44
2021/03/07 08:03:42;;;;;;;12.65;9.27;;;2.60;90.50;;;;;;5091139;28;20099;-48
2021/03/07 08:06:40;;;;;;;9.38;7.43;;;2.20;91.20;;;;;;5091847;28;20031;-45
2021/03/07 08:09:33;;;;;;;14.25;8.10;;;2.00;92.10;;;;;;5073529;28;20051;-51
2021/03/07 08:11:58;;;;;;;11.02;8.23;;;1.90;92.40;;;;;;5080639;28;20041;-49
2021/03/07 08:14:34;;;;;;;13.50;8.90;;;1.90;92.80;;;;;;5067909;28;20043;-48
2021/03/07 08:17:00;;;;;;;12.60;8.95;;;1.90;92.70;;;;;;5079931;28;20032;-46
2021/03/07 08:19:43;;;;;;;11.13;8.23;;;1.90;93.10;;;;;;5089174;28;20539;-52
2021/03/07 08:22:08;;;;;;;11.35;8.20;;;2.00;92.70;;;;;;5086200;28;20027;-46
2021/03/07 08:24:54;;;;;;;10.40;7.93;;;2.10;92.10;;;;;;5091137;28;20024;-51
2021/03/07 08:27:36;;;;;;;;;;;2.10;91.70;;;;;;5072629;28;20606;-49
2021/03/07 08:30:05;;;;;;;11.13;7.90;;;2.00;92.00;;;;;;5072014;28;19916;-50
2021/03/07 08:32:33;;;;;;;15.27;7.20;;;2.00;92.20;;;;;;5089735;28;20050;-48
2021/03/07 08:35:08;;;;;;;12.38;8.32;;;2.10;92.10;;;;;;5070175;28;20504;-50
2021/03/07 08:37:34;;;;;;;11.43;7.80;;;2.30;91.90;;;;;;5085166;28;20149;-52
2021/03/07 08:40:44;;;;;;;11.93;8.40;;;2.30;92.10;;;;;;5086574;28;20107;-48
2021/03/07 08:43:22;;;;;;;15.93;8.02;;;2.50;91.10;;;;;;5033365;28;20036;-51
2021/03/07 08:46:08;;;;;;;13.73;8.15;;;2.50;91.20;;;;;;5082806;28;20038;-45
2021/03/07 08:48:34;;;;;;;13.07;7.00;;;2.50;91.10;;;;;;5079910;28;20032;-48
2021/03/07 08:51:00;;;;;;;11.13;8.15;;;2.60;90.90;;;;;;5084124;28;20028;-47
2021/03/07 08:53:28;;;;;;;16.20;8.68;;;2.70;90.90;;;;;;5053241;28;20432;-55
2021/03/07 08:55:55;;;;;;;9.25;7.22;;;2.80;90.40;;;;;;5054192;28;20032;-48
2021/03/07 08:58:21;;;;;;;11.48;7.07;;;2.80;90.40;;;;;;5070993;28;20021;-54
2021/03/07 09:00:48;;;;;;;9.73;7.18;;;2.90;90.20;;;;;;5079585;28;20020;-52
2021/03/07 09:03:15;;;;;;;11.88;7.65;;;3.00;91.00;;;;;;5072219;28;20024;-47
2021/03/07 09:05:40;;;;;;;8.50;7.10;;;3.10;90.10;;;;;;5081475;28;20044;-50
2021/03/07 09:08:06;;;;;;;10.65;7.22;;;3.20;90.00;;;;;;5075813;28;20107;-52
2021/03/07 09:10:37;;;;;;;9.38;7.22;;;3.20;90.00;;;;;;5083593;28;20053;-52
2021/03/07 09:13:15;;;;;;;11.57;8.02;;;3.30;90.60;;;;;;5088004;28;20720;-55
2021/03/07 09:15:52;;;;;;;9.20;6.43;;;3.30;89.70;;;;;;5090284;28;20024;-51
2021/03/07 09:18:25;;;;;;;7.45;6.68;;;3.30;86.90;;;;;;5079797;28;20077;-53
2021/03/07 09:20:54;;;;;;;12.23;6.85;;;3.50;87.90;;;;;;5064330;28;20027;-48
2021/03/07 09:23:36;;;;;;;11.77;7.25;;;3.60;87.20;;;;;;5071518;28;20028;-50
2021/03/07 09:26:10;;;;;;;8.27;6.63;;;3.90;84.90;;;;;;5090577;28;20020;-49
2021/03/07 09:28:36;;;;;;;12.18;6.18;;;4.90;81.50;;;;;;5089144;28;20028;-50
2021/03/07 09:31:05;;;;;;;8.38;6.05;;;6.40;75.00;;;;;;5073210;28;20024;-56
2021/03/07 09:33:31;;;;;;;11.48;6.10;;;8.90;65.70;;;;;;5081261;28;20086;-54
2021/03/07 09:36:16;;;;;;;9.18;5.95;;;9.40;58.70;;;;;;5079168;28;20545;-55
2021/03/07 09:38:52;;;;;;;8.50;5.72;;;10.10;54.40;;;;;;5091304;28;20012;-58
2021/03/07 09:41:35;;;;;;;7.47;5.70;;;10.30;53.40;;;;;;5064051;28;20111;-51
2021/03/07 09:44:03;;;;;;;9.10;6.28;;;10.30;52.20;;;;;;5080373;28;20028;-56
2021/03/07 09:46:30;;;;;;;7.40;6.25;;;10.50;51.00;;;;;;5069123;28;20367;-55
2021/03/07 09:48:59;;;;;;;6.45;5.43;;;10.90;49.20;;;;;;5087134;28;20039;-55
2021/03/07 09:51:29;;;;;;;7.82;6.20;;;11.50;49.20;;;;;;5075454;28;20031;-50
2021/03/07 09:53:54;;;;;;;8.73;6.25;;;11.10;47.70;;;;;;5093758;28;20019;-50
2021/03/07 09:56:32;;;;;;;9.45;5.85;;;11.30;48.10;;;;;;5093073;28;20024;-50
2021/03/07 09:59:15;;;;;;;8.57;6.38;;;12.00;46.30;;;;;;5074029;28;20021;-51
2021/03/07 10:01:45;;;;;;;6.95;4.80;;;12.20;45.50;;;;;;5076386;28;20062;-52
2021/03/07 10:04:31;;;;;;;10.27;5.07;;;11.60;45.10;;;;;;5092712;28;20020;-52
2021/03/07 10:06:57;;;;;;;6.88;5.43;;;11.00;45.80;;;;;;5093965;28;20024;-52
2021/03/07 10:09:23;;;;;;;8.90;5.97;;;10.70;47.30;;;;;;5081265;28;20071;-53
2021/03/07 10:12:02;;;;;;;7.32;5.40;;;10.10;49.10;;;;;;5059239;28;20044;-47
2021/03/07 10:14:32;;;;;;;9.82;3.92;;;9.90;49.80;;;;;;5089615;28;20027;-57
2021/03/07 10:16:59;;;;;;;4.88;3.78;;;9.20;47.50;;;;;;5071682;28;20013;-58
2021/03/07 10:19:37;;;;;;;5.97;4.75;;;9.10;47.70;;;;;;5054632;28;20040;-48
2021/03/07 10:22:04;;;;;;;5.40;4.82;;;8.70;49.50;;;;;;5072696;28;20016;-53
2021/03/07 10:24:32;;;;;;;5.57;5.07;;;9.10;50.20;;;;;;5073746;28;20029;-54
2021/03/07 10:27:16;;;;;;;5.38;4.35;;;9.10;48.50;;;;;;5072824;28;20112;-50
2021/03/07 10:29:41;;;;;;;5.00;4.53;;;8.90;46.90;;;;;;5055694;28;20066;-50
2021/03/07 10:32:20;;;;;;;4.47;4.07;;;8.70;46.70;;;;;;5071301;28;20021;-53
2021/03/07 10:34:51;;;;;;;6.25;4.05;;;8.70;46.00;;;;;;5075592;28;20028;-56
2021/03/07 10:37:33;;;;;;;5.25;4.40;;;8.80;46.30;;;;;;5065368;28;20020;-59
2021/03/07 10:39:59;;;;;;;5.00;4.45;;;9.00;45.80;;;;;;5074109;28;20462;-53
2021/03/07 10:42:32;;;;;;;4.72;4.13;;;9.00;45.40;;;;;;5092304;28;20059;-55
2021/03/07 10:45:18;;;;;;;4.60;3.97;;;8.90;45.60;;;;;;5093800;28;20519;-54
2021/03/07 10:47:57;;;;;;;4.32;3.92;;;9.00;46.10;;;;;;5056385;28;20038;-58
2021/03/07 10:50:23;;;;;;;3.85;3.40;;;9.10;45.30;;;;;;5074782;28;20107;-59
2021/03/07 10:52:48;;;;;;;4.13;3.63;;;8.90;43.80;;;;;;5072762;28;20052;-64
2021/03/07 10:55:15;;;;;;;4.25;3.85;;;8.80;44.40;;;;;;5072728;28;20033;-61
2021/03/07 10:57:41;;;;;;;8.52;4.57;;;8.80;44.90;;;;;;5076250;28;20024;-51
2021/03/07 11:00:07;;;;;;;6.22;3.75;;;8.70;44.90;;;;;;5062688;28;20115;-49
2021/03/07 11:02:33;;;;;;;5.05;4.25;;;8.60;45.00;;;;;;5089884;28;20029;-53
2021/03/07 11:04:58;;;;;;;7.15;4.22;;;8.50;46.30;;;;;;5064671;28;20032;-56
2021/03/07 11:07:24;;;;;;;5.82;3.88;;;8.40;44.70;;;;;;5087114;28;20497;-51
2021/03/07 11:09:49;;;;;;;3.92;3.58;;;8.40;45.00;;;;;;5087504;28;20035;-57
2021/03/07 11:12:15;;;;;;;5.40;4.20;;;8.40;45.60;;;;;;5093702;28;20028;-55
2021/03/07 11:14:41;;;;;;;4.43;4.00;;;8.40;45.20;;;;;;5054614;28;20470;-53
2021/03/07 11:17:06;;;;;;;5.07;4.25;;;8.40;45.20;;;;;;5067475;28;20021;-52
2021/03/07 11:19:32;;;;;;;3.55;3.13;;;8.30;44.60;;;;;;5084306;28;20028;-51
2021/03/07 11:21:57;;;;;;;4.47;3.70;;;8.30;44.40;;;;;;5067577;28;20422;-51
2021/03/07 11:24:23;;;;;;;4.55;3.65;;;8.30;44.40;;;;;;5073683;28;20024;-54
2021/03/07 11:26:48;;;;;;;5.35;4.00;;;8.20;43.90;;;;;;5056677;28;20031;-52
2021/03/07 11:29:14;;;;;;;5.90;3.85;;;8.10;43.80;;;;;;5074010;28;20036;-50
2021/03/07 11:31:40;;;;;;;4.03;3.63;;;8.10;43.40;;;;;;5080368;28;20069;-53
2021/03/07 11:34:05;;;;;;;4.45;4.05;;;8.10;44.50;;;;;;5093466;28;20036;-52
2021/03/07 11:36:31;;;;;;;4.53;3.78;;;7.90;44.20;;;;;;5088106;28;20035;-49
2021/03/07 11:38:56;;;;;;;4.55;3.95;;;7.70;44.70;;;;;;5075354;28;20028;-48
2021/03/07 11:41:22;;;;;;;5.50;3.90;;;7.70;45.50;;;;;;5072594;28;20035;-50
2021/03/07 11:43:47;;;;;;;4.65;3.88;;;7.90;46.30;;;;;;5091938;28;20031;-54
2021/03/07 11:46:13;;;;;;;4.05;3.47;;;8.00;45.30;;;;;;5066154;28;20032;-52
2021/03/07 11:48:39;;;;;;;4.00;3.60;;;7.90;44.40;;;;;;5080815;28;20499;-52
2021/03/07 11:51:05;;;;;;;7.53;4.05;;;7.90;44.20;;;;;;5073601;28;20028;-55
2021/03/07 11:53:30;;;;;;;4.10;3.70;;;7.80;44.90;;;;;;5078476;28;20051;-54
2021/03/07 11:55:56;;;;;;;4.05;3.65;;;7.80;44.90;;;;;;5073700;28;20400;-57
2021/03/07 11:58:21;;;;;;;4.65;3.75;;;7.70;45.40;;;;;;5090892;28;20020;-51
2021/03/07 12:00:47;;;;;;;5.60;3.63;;;7.80;45.20;;;;;;5074311;28;20470;-49
2021/03/07 12:03:12;;;;;;;6.95;3.70;;;7.80;45.80;;;;;;5089883;28;20029;-50
2021/03/07 12:05:38;;;;;;;6.78;4.07;;;7.90;45.40;;;;;;5073513;28;20028;-53
2021/03/07 12:08:04;;;;;;;8.50;4.43;;;7.90;44.90;;;;;;5090122;28;20031;-49
2021/03/07 12:10:29;;;;;;;3.83;3.42;;;7.70;44.90;;;;;;5083221;28;20028;-50
2021/03/07 12:12:55;;;;;;;6.45;3.55;;;7.80;45.40;;;;;;5088091;28;20504;-50
2021/03/07 12:15:20;;;;;;;5.35;3.95;;;7.80;45.70;;;;;;5054971;28;20023;-56
2021/03/07 12:17:46;;;;;;;4.40;4.00;;;8.00;44.90;;;;;;5053996;28;20089;-52
2021/03/07 12:20:12;;;;;;;5.03;4.10;;;7.90;44.90;;;;;;5071058;28;20425;-55
2021/03/07 12:22:38;;;;;;;6.53;5.00;;;7.90;45.30;;;;;;5054338;28;20111;-50
2021/03/07 12:25:05;;;;;;;5.05;4.03;;;8.00;45.90;;;;;;5072118;28;20446;-51
2021/03/07 12:27:31;;;;;;;5.05;3.40;;;8.00;45.50;;;;;;5053328;28;20162;-52
2021/03/07 12:29:57;;;;;;;5.20;4.43;;;8.20;44.80;;;;;;5071114;28;20052;-54
2021/03/07 12:34:54;;;;;;;5.50;3.90;;;8.10;44.80;;;;;;5107531;28;20048;-44
2021/03/07 12:37:19;;;;;;;4.57;3.85;;;8.10;46.00;;;;;;5092895;28;20027;-47
2021/03/07 12:39:45;;;;;;;5.63;4.38;;;8.10;46.10;;;;;;5111264;28;20027;-43
2021/03/07 12:42:10;;;;;;;4.28;3.90;;;8.20;45.70;;;;;;5111118;28;20024;-46
2021/03/07 12:44:36;;;;;;;4.38;3.97;;;8.30;44.50;;;;;;5110070;28;20028;-48
2021/03/07 12:47:02;;;;;;;4.97;4.15;;;8.30;44.70;;;;;;5092475;28;20031;-47
2021/03/07 12:49:27;;;;;;;4.68;4.20;;;8.20;45.10;;;;;;5110707;28;20020;-44
2021/03/07 12:51:53;;;;;;;7.60;3.92;;;8.20;44.60;;;;;;5110918;28;20024;-45
2021/03/07 12:54:19;;;;;;;4.97;4.03;;;8.20;45.20;;;;;;5091757;28;20073;-46
2021/03/07 12:56:44;;;;;;;4.30;3.85;;;8.20;45.00;;;;;;5110617;28;20019;-46
2021/03/07 12:59:10;;;;;;;4.60;4.20;;;8.20;45.70;;;;;;5092264;28;20020;-49
2021/03/07 13:01:35;;;;;;;5.00;4.22;;;8.20;45.20;;;;;;5110635;28;20020;-48